Terminal Aerodrome Forecast
Issued by NWS Tulsa, OK

Home | Current Version | Previous Version | Text Only | Print | Product List | Glossary On
Versions: 1 2 3 4 5 6 7 8 9 10 11 12 13 14 15 16
000
FTPQ31 PGUM 222332
TAFGUM
TAF

TAF
PTSA 222332Z 2300/2324 08012KT P6SM SCT016 SCT040 BKN120
      TEMPO 2300/2303 5SM SHRA BKN014 OVC030=

USA.gov is the U.S. government's official web portal to all federal, state and local government web resources and services.